sensor_id;sensor_type;location;lat;lon;timestamp;P1;durP1;ratioP1;P2;durP2;ratioP2
2712;SDS011;1366;47.988;7.856;2023-04-16T04:00:43;7.93;;;6.93;;
2712;SDS011;1366;47.988;7.856;2023-04-16T04:03:10;7.10;;;6.40;;
2712;SDS011;1366;47.988;7.856;2023-04-16T04:05:37;7.17;;;6.57;;
2712;SDS011;1366;47.988;7.856;2023-04-16T04:08:04;7.80;;;7.10;;
2712;SDS011;1366;47.988;7.856;2023-04-16T04:10:33;6.97;;;6.27;;
2712;SDS011;1366;47.988;7.856;2023-04-16T04:13:00;9.07;;;6.97;;
2712;SDS011;1366;47.988;7.856;2023-04-16T04:15:26;7.67;;;6.97;;
2712;SDS011;1366;47.988;7.856;2023-04-16T04:17:52;7.57;;;6.87;;
2712;SDS011;1366;47.988;7.856;2023-04-16T04:20:18;8.37;;;7.57;;
2712;SDS011;1366;47.988;7.856;2023-04-16T04:22:44;7.80;;;7.00;;
2712;SDS011;1366;47.988;7.856;2023-04-16T04:25:10;7.73;;;6.93;;
2712;SDS011;1366;47.988;7.856;2023-04-16T04:27:36;7.83;;;6.70;;
2712;SDS011;1366;47.988;7.856;2023-04-16T04:30:02;8.10;;;7.40;;
2712;SDS011;1366;47.988;7.856;2023-04-16T04:32:29;8.60;;;7.33;;
2712;SDS011;1366;47.988;7.856;2023-04-16T04:34:55;7.77;;;6.97;;
2712;SDS011;1366;47.988;7.856;2023-04-16T04:37:21;8.73;;;8.03;;
2712;SDS011;1366;47.988;7.856;2023-04-16T04:39:47;8.40;;;7.60;;
2712;SDS011;1366;47.988;7.856;2023-04-16T04:42:15;11.17;;;8.60;;
2712;SDS011;1366;47.988;7.856;2023-04-16T04:44:42;8.03;;;7.30;;
2712;SDS011;1366;47.988;7.856;2023-04-16T04:47:08;8.00;;;7.30;;
2712;SDS011;1366;47.988;7.856;2023-04-16T04:49:34;9.60;;;8.07;;
2712;SDS011;1366;47.988;7.856;2023-04-16T04:52:00;8.97;;;8.10;;
2712;SDS011;1366;47.988;7.856;2023-04-16T04:54:27;8.97;;;8.07;;
2712;SDS011;1366;47.988;7.856;2023-04-16T04:56:53;9.67;;;8.57;;
2712;SDS011;1366;47.988;7.856;2023-04-16T04:59:20;12.57;;;9.10;;
2712;SDS011;1366;47.988;7.856;2023-04-16T05:01:46;9.37;;;8.40;;
2712;SDS011;1366;47.988;7.856;2023-04-16T05:04:12;8.73;;;7.27;;
2712;SDS011;1366;47.988;7.856;2023-04-16T05:06:38;7.03;;;6.40;;
2712;SDS011;1366;47.988;7.856;2023-04-16T05:09:04;7.90;;;6.80;;
2712;SDS011;1366;47.988;7.856;2023-04-16T05:11:32;7.97;;;7.27;;
2712;SDS011;1366;47.988;7.856;2023-04-16T05:13:58;7.63;;;6.90;;
2712;SDS011;1366;47.988;7.856;2023-04-16T05:16:24;6.93;;;6.33;;
2712;SDS011;1366;47.988;7.856;2023-04-16T05:18:51;8.10;;;6.93;;
2712;SDS011;1366;47.988;7.856;2023-04-16T05:21:17;8.50;;;7.70;;
2712;SDS011;1366;47.988;7.856;2023-04-16T05:23:43;8.27;;;7.17;;
2712;SDS011;1366;47.988;7.856;2023-04-16T05:26:09;7.70;;;7.00;;
2712;SDS011;1366;47.988;7.856;2023-04-16T05:28:35;7.63;;;6.93;;
2712;SDS011;1366;47.988;7.856;2023-04-16T05:31:01;7.60;;;6.90;;
2712;SDS011;1366;47.988;7.856;2023-04-16T05:33:27;7.83;;;7.13;;
2712;SDS011;1366;47.988;7.856;2023-04-16T05:35:53;6.90;;;6.33;;
2712;SDS011;1366;47.988;7.856;2023-04-16T05:38:19;8.07;;;7.27;;
2712;SDS011;1366;47.988;7.856;2023-04-16T05:40:45;7.63;;;6.93;;
2712;SDS011;1366;47.988;7.856;2023-04-16T05:43:12;10.17;;;7.10;;
2712;SDS011;1366;47.988;7.856;2023-04-16T05:45:38;8.03;;;7.00;;
2712;SDS011;1366;47.988;7.856;2023-04-16T05:48:08;11.30;;;6.80;;
2712;SDS011;1366;47.988;7.856;2023-04-16T05:50:34;8.17;;;7.37;;
2712;SDS011;1366;47.988;7.856;2023-04-16T05:53:01;6.50;;;5.90;;
2712;SDS011;1366;47.988;7.856;2023-04-16T05:55:27;7.90;;;7.20;;
2712;SDS011;1366;47.988;7.856;2023-04-16T05:57:53;7.57;;;6.87;;
2712;SDS011;1366;47.988;7.856;2023-04-16T06:00:19;7.87;;;7.17;;
2712;SDS011;1366;47.988;7.856;2023-04-16T06:02:45;7.27;;;6.67;;
2712;SDS011;1366;47.988;7.856;2023-04-16T06:05:11;8.00;;;7.20;;
2712;SDS011;1366;47.988;7.856;2023-04-16T06:07:37;8.63;;;7.73;;
2712;SDS011;1366;47.988;7.856;2023-04-16T06:10:03;7.30;;;6.60;;
2712;SDS011;1366;47.988;7.856;2023-04-16T06:12:29;6.83;;;6.23;;
2712;SDS011;1366;47.988;7.856;2023-04-16T06:14:55;6.80;;;6.20;;
2712;SDS011;1366;47.988;7.856;2023-04-16T06:17:21;7.93;;;7.17;;
2712;SDS011;1366;47.988;7.856;2023-04-16T06:19:47;8.10;;;7.27;;
2712;SDS011;1366;47.988;7.856;2023-04-16T06:22:14;8.10;;;7.40;;
2712;SDS011;1366;47.988;7.856;2023-04-16T06:24:40;7.20;;;6.57;;
2712;SDS011;1366;47.988;7.856;2023-04-16T06:27:06;8.57;;;7.67;;
2712;SDS011;1366;47.988;7.856;2023-04-16T06:29:32;8.13;;;7.43;;
2712;SDS011;1366;47.988;7.856;2023-04-16T06:31:58;7.13;;;6.53;;
2712;SDS011;1366;47.988;7.856;2023-04-16T06:34:25;8.57;;;7.03;;
2712;SDS011;1366;47.988;7.856;2023-04-16T06:36:51;8.10;;;7.40;;
2712;SDS011;1366;47.988;7.856;2023-04-16T06:39:17;9.10;;;8.10;;
2712;SDS011;1366;47.988;7.856;2023-04-16T06:41:46;7.77;;;7.00;;
2712;SDS011;1366;47.988;7.856;2023-04-16T06:44:12;8.07;;;7.27;;
2712;SDS011;1366;47.988;7.856;2023-04-16T06:46:38;7.50;;;6.80;;
2712;SDS011;1366;47.988;7.856;2023-04-16T06:49:04;7.13;;;6.53;;
2712;SDS011;1366;47.988;7.856;2023-04-16T06:51:31;9.47;;;7.13;;
2712;SDS011;1366;47.988;7.856;2023-04-16T06:53:57;7.43;;;6.73;;
2712;SDS011;1366;47.988;7.856;2023-04-16T06:56:23;8.80;;;8.00;;
2712;SDS011;1366;47.988;7.856;2023-04-16T06:58:49;9.40;;;8.50;;
2712;SDS011;1366;47.988;7.856;2023-04-16T07:01:16;7.97;;;7.20;;
2712;SDS011;1366;47.988;7.856;2023-04-16T07:03:42;7.77;;;7.07;;
2712;SDS011;1366;47.988;7.856;2023-04-16T07:06:08;9.97;;;8.97;;
2712;SDS011;1366;47.988;7.856;2023-04-16T07:08:34;7.80;;;7.10;;
2712;SDS011;1366;47.988;7.856;2023-04-16T07:11:00;8.40;;;7.60;;
2712;SDS011;1366;47.988;7.856;2023-04-16T07:13:26;10.83;;;8.10;;
2712;SDS011;1366;47.988;7.856;2023-04-16T07:15:52;9.20;;;8.33;;
2712;SDS011;1366;47.988;7.856;2023-04-16T07:18:18;9.43;;;7.83;;
2712;SDS011;1366;47.988;7.856;2023-04-16T07:20:45;8.40;;;7.60;;
2712;SDS011;1366;47.988;7.856;2023-04-16T07:23:11;8.10;;;7.17;;
2712;SDS011;1366;47.988;7.856;2023-04-16T07:25:37;9.17;;;8.27;;
2712;SDS011;1366;47.988;7.856;2023-04-16T07:28:04;8.40;;;7.60;;
2712;SDS011;1366;47.988;7.856;2023-04-16T07:30:30;10.90;;;8.10;;
2712;SDS011;1366;47.988;7.856;2023-04-16T07:33:01;8.00;;;7.20;;
2712;SDS011;1366;47.988;7.856;2023-04-16T07:35:27;8.00;;;7.20;;
2712;SDS011;1366;47.988;7.856;2023-04-16T07:37:54;8.03;;;7.27;;
2712;SDS011;1366;47.988;7.856;2023-04-16T07:40:20;7.73;;;7.03;;
2712;SDS011;1366;47.988;7.856;2023-04-16T07:42:46;7.70;;;7.00;;
2712;SDS011;1366;47.988;7.856;2023-04-16T07:45:12;7.33;;;6.73;;
2712;SDS011;1366;47.988;7.856;2023-04-16T07:47:38;8.37;;;6.87;;
2712;SDS011;1366;47.988;7.856;2023-04-16T07:50:04;8.23;;;7.43;;
2712;SDS011;1366;47.988;7.856;2023-04-16T07:52:31;7.50;;;6.70;;
2712;SDS011;1366;47.988;7.856;2023-04-16T07:54:57;7.23;;;6.53;;
2712;SDS011;1366;47.988;7.856;2023-04-16T07:57:23;8.40;;;7.20;;
2712;SDS011;1366;47.988;7.856;2023-04-16T07:59:49;7.13;;;6.43;;
2712;SDS011;1366;47.988;7.856;2023-04-16T08:02:15;7.73;;;6.90;;
2712;SDS011;1366;47.988;7.856;2023-04-16T08:04:41;7.43;;;6.67;;
2712;SDS011;1366;47.988;7.856;2023-04-16T08:07:08;7.37;;;6.67;;
2712;SDS011;1366;47.988;7.856;2023-04-16T08:09:34;8.00;;;7.30;;
2712;SDS011;1366;47.988;7.856;2023-04-16T08:12:01;7.27;;;6.57;;
2712;SDS011;1366;47.988;7.856;2023-04-16T08:14:27;7.33;;;6.70;;
2712;SDS011;1366;47.988;7.856;2023-04-16T08:16:53;7.53;;;6.83;;
2712;SDS011;1366;47.988;7.856;2023-04-16T08:19:19;7.70;;;6.90;;
2712;SDS011;1366;47.988;7.856;2023-04-16T08:21:45;7.80;;;7.07;;
2712;SDS011;1366;47.988;7.856;2023-04-16T08:24:11;7.07;;;6.47;;
2712;SDS011;1366;47.988;7.856;2023-04-16T08:26:37;6.33;;;5.80;;
2712;SDS011;1366;47.988;7.856;2023-04-16T08:29:03;7.87;;;7.07;;
2712;SDS011;1366;47.988;7.856;2023-04-16T08:31:30;8.10;;;7.30;;
2712;SDS011;1366;47.988;7.856;2023-04-16T08:33:56;7.47;;;6.60;;
2712;SDS011;1366;47.988;7.856;2023-04-16T08:36:22;8.53;;;7.63;;
2712;SDS011;1366;47.988;7.856;2023-04-16T08:38:48;7.40;;;6.70;;
2712;SDS011;1366;47.988;7.856;2023-04-16T08:41:16;9.27;;;7.10;;
2712;SDS011;1366;47.988;7.856;2023-04-16T08:43:42;7.87;;;7.07;;
2712;SDS011;1366;47.988;7.856;2023-04-16T08:46:12;8.30;;;7.40;;
2712;SDS011;1366;47.988;7.856;2023-04-16T08:48:39;8.37;;;7.50;;
2712;SDS011;1366;47.988;7.856;2023-04-16T08:51:08;8.87;;;7.97;;
2712;SDS011;1366;47.988;7.856;2023-04-16T08:53:35;8.10;;;7.23;;
2712;SDS011;1366;47.988;7.856;2023-04-16T08:56:03;7.63;;;6.93;;
2712;SDS011;1366;47.988;7.856;2023-04-16T08:58:30;8.10;;;7.40;;
2712;SDS011;1366;47.988;7.856;2023-04-16T09:00:59;6.30;;;5.80;;
2712;SDS011;1366;47.988;7.856;2023-04-16T09:03:26;8.20;;;7.13;;
2712;SDS011;1366;47.988;7.856;2023-04-16T09:05:52;7.73;;;6.60;;
2712;SDS011;1366;47.988;7.856;2023-04-16T09:08:21;8.00;;;7.20;;
2712;SDS011;1366;47.988;7.856;2023-04-16T09:10:47;11.37;;;7.50;;
2712;SDS011;1366;47.988;7.856;2023-04-16T09:13:13;7.60;;;6.83;;
2712;SDS011;1366;47.988;7.856;2023-04-16T09:15:41;10.60;;;7.40;;
2712;SDS011;1366;47.988;7.856;2023-04-16T09:18:09;8.53;;;7.73;;
2712;SDS011;1366;47.988;7.856;2023-04-16T09:20:36;7.87;;;7.13;;
2712;SDS011;1366;47.988;7.856;2023-04-16T09:23:02;7.70;;;6.90;;
2712;SDS011;1366;47.988;7.856;2023-04-16T09:25:32;8.30;;;7.20;;
2712;SDS011;1366;47.988;7.856;2023-04-16T09:28:02;10.70;;;7.60;;
2712;SDS011;1366;47.988;7.856;2023-04-16T09:30:28;8.87;;;7.53;;
2712;SDS011;1366;47.988;7.856;2023-04-16T09:35:47;8.77;;;7.87;;
2712;SDS011;1366;47.988;7.856;2023-04-16T09:38:13;9.67;;;7.93;;
2712;SDS011;1366;47.988;7.856;2023-04-16T09:40:39;9.43;;;8.10;;
2712;SDS011;1366;47.988;7.856;2023-04-16T09:43:10;8.47;;;7.57;;
2712;SDS011;1366;47.988;7.856;2023-04-16T09:45:48;8.33;;;7.47;;
2712;SDS011;1366;47.988;7.856;2023-04-16T09:48:15;8.80;;;7.90;;
2712;SDS011;1366;47.988;7.856;2023-04-16T09:50:50;8.77;;;7.90;;
2712;SDS011;1366;47.988;7.856;2023-04-16T09:53:22;7.50;;;6.80;;
2712;SDS011;1366;47.988;7.856;2023-04-16T09:55:50;9.90;;;7.70;;
2712;SDS011;1366;47.988;7.856;2023-04-16T09:58:18;10.17;;;9.03;;
2712;SDS011;1366;47.988;7.856;2023-04-16T10:00:45;9.90;;;8.33;;
2712;SDS011;1366;47.988;7.856;2023-04-16T10:03:11;9.07;;;7.10;;
2712;SDS011;1366;47.988;7.856;2023-04-16T10:05:37;9.73;;;8.47;;
2712;SDS011;1366;47.988;7.856;2023-04-16T10:08:09;9.93;;;8.57;;
2712;SDS011;1366;47.988;7.856;2023-04-16T10:10:36;8.50;;;7.70;;
2712;SDS011;1366;47.988;7.856;2023-04-16T10:13:02;11.23;;;9.20;;
2712;SDS011;1366;47.988;7.856;2023-04-16T10:15:28;9.77;;;8.10;;
2712;SDS011;1366;47.988;7.856;2023-04-16T10:17:55;10.20;;;8.40;;
2712;SDS011;1366;47.988;7.856;2023-04-16T10:20:22;8.40;;;7.60;;
2712;SDS011;1366;47.988;7.856;2023-04-16T10:22:48;15.77;;;8.87;;
2712;SDS011;1366;47.988;7.856;2023-04-16T10:25:15;10.43;;;9.43;;
2712;SDS011;1366;47.988;7.856;2023-04-16T10:27:41;9.10;;;8.17;;
2712;SDS011;1366;47.988;7.856;2023-04-16T10:30:08;9.70;;;8.70;;
2712;SDS011;1366;47.988;7.856;2023-04-16T10:32:35;8.70;;;7.80;;
2712;SDS011;1366;47.988;7.856;2023-04-16T10:35:02;12.90;;;9.80;;
2712;SDS011;1366;47.988;7.856;2023-04-16T10:37:29;11.23;;;9.07;;
2712;SDS011;1366;47.988;7.856;2023-04-16T10:39:56;12.50;;;8.87;;
2712;SDS011;1366;47.988;7.856;2023-04-16T10:42:23;11.93;;;9.50;;
2712;SDS011;1366;47.988;7.856;2023-04-16T10:44:50;11.60;;;8.83;;
2712;SDS011;1366;47.988;7.856;2023-04-16T10:47:16;12.20;;;9.53;;
2712;SDS011;1366;47.988;7.856;2023-04-16T10:49:42;10.70;;;9.00;;
2712;SDS011;1366;47.988;7.856;2023-04-16T10:52:09;9.80;;;8.30;;
2712;SDS011;1366;47.988;7.856;2023-04-16T10:54:36;11.50;;;9.33;;
2712;SDS011;1366;47.988;7.856;2023-04-16T10:57:02;10.47;;;8.70;;
2712;SDS011;1366;47.988;7.856;2023-04-16T10:59:30;10.73;;;9.13;;
2712;SDS011;1366;47.988;7.856;2023-04-16T11:01:58;11.97;;;9.23;;
2712;SDS011;1366;47.988;7.856;2023-04-16T11:04:28;12.40;;;9.10;;
2712;SDS011;1366;47.988;7.856;2023-04-16T11:12:15;13.87;;;10.10;;
2712;SDS011;1366;47.988;7.856;2023-04-16T11:14:43;17.47;;;12.87;;
2712;SDS011;1366;47.988;7.856;2023-04-16T11:17:11;11.37;;;10.07;;
2712;SDS011;1366;47.988;7.856;2023-04-16T11:19:37;12.80;;;9.60;;
2712;SDS011;1366;47.988;7.856;2023-04-16T11:22:04;13.47;;;8.70;;
2712;SDS011;1366;47.988;7.856;2023-04-16T11:24:30;13.40;;;9.13;;
2712;SDS011;1366;47.988;7.856;2023-04-16T11:26:57;11.80;;;8.90;;
2712;SDS011;1366;47.988;7.856;2023-04-16T11:29:23;9.80;;;8.43;;
2712;SDS011;1366;47.988;7.856;2023-04-16T11:31:52;12.33;;;8.50;;
2712;SDS011;1366;47.988;7.856;2023-04-16T11:34:19;10.00;;;8.07;;
2712;SDS011;1366;47.988;7.856;2023-04-16T11:36:49;10.90;;;8.90;;
2712;SDS011;1366;47.988;7.856;2023-04-16T11:39:15;11.63;;;8.60;;
2712;SDS011;1366;47.988;7.856;2023-04-16T11:41:45;12.87;;;8.80;;
2712;SDS011;1366;47.988;7.856;2023-04-16T11:44:21;9.20;;;7.60;;
2712;SDS011;1366;47.988;7.856;2023-04-16T11:46:48;14.20;;;8.60;;
2712;SDS011;1366;47.988;7.856;2023-04-16T11:49:14;10.13;;;8.40;;
2712;SDS011;1366;47.988;7.856;2023-04-16T11:51:46;11.60;;;8.53;;
2712;SDS011;1366;47.988;7.856;2023-04-16T11:54:19;9.40;;;7.30;;
2712;SDS011;1366;47.988;7.856;2023-04-16T11:56:45;9.53;;;8.40;;
2712;SDS011;1366;47.988;7.856;2023-04-16T12:01:38;10.63;;;9.17;;
2712;SDS011;1366;47.988;7.856;2023-04-16T12:04:04;10.70;;;8.33;;
2712;SDS011;1366;47.988;7.856;2023-04-16T12:06:31;10.87;;;8.23;;
2712;SDS011;1366;47.988;7.856;2023-04-16T12:08:57;9.47;;;8.40;;
2712;SDS011;1366;47.988;7.856;2023-04-16T12:11:41;9.30;;;8.03;;
2712;SDS011;1366;47.988;7.856;2023-04-16T12:14:11;12.57;;;9.27;;
2712;SDS011;1366;47.988;7.856;2023-04-16T12:16:37;12.90;;;9.40;;
2712;SDS011;1366;47.988;7.856;2023-04-16T12:19:03;10.27;;;8.00;;
2712;SDS011;1366;47.988;7.856;2023-04-16T12:22:03;11.10;;;9.10;;
2712;SDS011;1366;47.988;7.856;2023-04-16T12:24:23;9.77;;;8.43;;
2712;SDS011;1366;47.988;7.856;2023-04-16T12:26:51;8.30;;;7.50;;
2712;SDS011;1366;47.988;7.856;2023-04-16T12:29:26;7.87;;;6.60;;
2712;SDS011;1366;47.988;7.856;2023-04-16T12:31:53;8.20;;;7.40;;
2712;SDS011;1366;47.988;7.856;2023-04-16T12:34:19;9.30;;;7.67;;
2712;SDS011;1366;47.988;7.856;2023-04-16T12:36:46;8.20;;;7.40;;
2712;SDS011;1366;47.988;7.856;2023-04-16T12:39:13;10.00;;;8.27;;
2712;SDS011;1366;47.988;7.856;2023-04-16T12:41:41;7.47;;;6.83;;
2712;SDS011;1366;47.988;7.856;2023-04-16T12:44:08;8.70;;;7.80;;
2712;SDS011;1366;47.988;7.856;2023-04-16T12:46:35;8.30;;;7.40;;
2712;SDS011;1366;47.988;7.856;2023-04-16T12:49:02;12.00;;;9.07;;
2712;SDS011;1366;47.988;7.856;2023-04-16T12:51:28;11.43;;;8.23;;
2712;SDS011;1366;47.988;7.856;2023-04-16T12:53:54;8.67;;;7.77;;
2712;SDS011;1366;47.988;7.856;2023-04-16T12:56:20;11.20;;;7.63;;
2712;SDS011;1366;47.988;7.856;2023-04-16T12:58:46;8.33;;;7.10;;
2712;SDS011;1366;47.988;7.856;2023-04-16T13:01:15;10.53;;;8.70;;
2712;SDS011;1366;47.988;7.856;2023-04-16T13:03:41;10.30;;;8.40;;
2712;SDS011;1366;47.988;7.856;2023-04-16T13:06:07;9.20;;;7.97;;
2712;SDS011;1366;47.988;7.856;2023-04-16T13:08:33;9.33;;;8.00;;
2712;SDS011;1366;47.988;7.856;2023-04-16T13:10:59;11.53;;;9.30;;
2712;SDS011;1366;47.988;7.856;2023-04-16T13:13:26;10.00;;;8.80;;
2712;SDS011;1366;47.988;7.856;2023-04-16T13:15:52;10.53;;;9.40;;
2712;SDS011;1366;47.988;7.856;2023-04-16T13:18:18;11.67;;;9.23;;
2712;SDS011;1366;47.988;7.856;2023-04-16T13:20:44;12.17;;;9.27;;
2712;SDS011;1366;47.988;7.856;2023-04-16T13:23:10;10.63;;;9.53;;
2712;SDS011;1366;47.988;7.856;2023-04-16T13:25:36;11.90;;;9.47;;
2712;SDS011;1366;47.988;7.856;2023-04-16T13:28:02;11.73;;;9.73;;
2712;SDS011;1366;47.988;7.856;2023-04-16T13:30:28;11.60;;;9.97;;
2712;SDS011;1366;47.988;7.856;2023-04-16T13:32:55;28.47;;;23.13;;
2712;SDS011;1366;47.988;7.856;2023-04-16T13:35:21;21.67;;;16.00;;
2712;SDS011;1366;47.988;7.856;2023-04-16T13:37:48;16.67;;;13.93;;
2712;SDS011;1366;47.988;7.856;2023-04-16T13:40:14;13.90;;;11.80;;
2712;SDS011;1366;47.988;7.856;2023-04-16T13:42:40;12.07;;;9.87;;
2712;SDS011;1366;47.988;7.856;2023-04-16T13:45:06;13.83;;;10.60;;
2712;SDS011;1366;47.988;7.856;2023-04-16T13:47:33;10.90;;;9.67;;
2712;SDS011;1366;47.988;7.856;2023-04-16T13:50:00;11.03;;;9.70;;
2712;SDS011;1366;47.988;7.856;2023-04-16T13:52:26;14.13;;;9.83;;
2712;SDS011;1366;47.988;7.856;2023-04-16T13:54:52;12.53;;;8.80;;
2712;SDS011;1366;47.988;7.856;2023-04-16T13:57:18;9.50;;;8.50;;
2712;SDS011;1366;47.988;7.856;2023-04-16T13:59:44;12.07;;;9.53;;
2712;SDS011;1366;47.988;7.856;2023-04-16T14:02:10;13.50;;;10.40;;
2712;SDS011;1366;47.988;7.856;2023-04-16T14:04:37;12.17;;;9.53;;
2712;SDS011;1366;47.988;7.856;2023-04-16T14:07:03;11.97;;;10.00;;
2712;SDS011;1366;47.988;7.856;2023-04-16T14:09:29;11.50;;;10.30;;
2712;SDS011;1366;47.988;7.856;2023-04-16T14:11:55;12.67;;;11.03;;
2712;SDS011;1366;47.988;7.856;2023-04-16T14:14:21;11.10;;;9.90;;
2712;SDS011;1366;47.988;7.856;2023-04-16T14:16:48;12.20;;;10.90;;
2712;SDS011;1366;47.988;7.856;2023-04-16T14:19:14;11.60;;;9.77;;
2712;SDS011;1366;47.988;7.856;2023-04-16T14:21:40;13.60;;;10.47;;
2712;SDS011;1366;47.988;7.856;2023-04-16T14:24:06;12.03;;;9.80;;
2712;SDS011;1366;47.988;7.856;2023-04-16T14:26:33;11.23;;;9.83;;
2712;SDS011;1366;47.988;7.856;2023-04-16T14:28:59;12.47;;;10.70;;
2712;SDS011;1366;47.988;7.856;2023-04-16T14:31:25;11.40;;;10.20;;
2712;SDS011;1366;47.988;7.856;2023-04-16T14:33:51;10.93;;;9.67;;
2712;SDS011;1366;47.988;7.856;2023-04-16T14:36:17;13.93;;;10.00;;
2712;SDS011;1366;47.988;7.856;2023-04-16T14:38:46;12.70;;;10.20;;
2712;SDS011;1366;47.988;7.856;2023-04-16T14:41:12;12.53;;;9.70;;
2712;SDS011;1366;47.988;7.856;2023-04-16T14:43:38;11.50;;;10.20;;
2712;SDS011;1366;47.988;7.856;2023-04-16T14:46:05;11.03;;;9.83;;
2712;SDS011;1366;47.988;7.856;2023-04-16T14:48:31;12.47;;;10.40;;
2712;SDS011;1366;47.988;7.856;2023-04-16T14:50:57;11.10;;;10.00;;
2712;SDS011;1366;47.988;7.856;2023-04-16T14:53:23;12.37;;;9.57;;
2712;SDS011;1366;47.988;7.856;2023-04-16T14:55:50;11.20;;;10.00;;
2712;SDS011;1366;47.988;7.856;2023-04-16T14:58:17;11.67;;;9.53;;
2712;SDS011;1366;47.988;7.856;2023-04-16T15:00:43;12.73;;;10.67;;
2712;SDS011;1366;47.988;7.856;2023-04-16T15:03:09;12.50;;;10.67;;
2712;SDS011;1366;47.988;7.856;2023-04-16T15:05:35;16.80;;;12.70;;
2712;SDS011;1366;47.988;7.856;2023-04-16T15:08:01;16.13;;;13.03;;
2712;SDS011;1366;47.988;7.856;2023-04-16T15:10:29;9.53;;;7.93;;
2712;SDS011;1366;47.988;7.856;2023-04-16T15:12:55;13.47;;;9.60;;
2712;SDS011;1366;47.988;7.856;2023-04-16T15:15:21;12.40;;;9.47;;
2712;SDS011;1366;47.988;7.856;2023-04-16T15:17:47;9.30;;;8.27;;
2712;SDS011;1366;47.988;7.856;2023-04-16T15:20:14;11.73;;;9.27;;
2712;SDS011;1366;47.988;7.856;2023-04-16T15:22:40;11.67;;;10.43;;
2712;SDS011;1366;47.988;7.856;2023-04-16T15:25:07;12.67;;;9.60;;
2712;SDS011;1366;47.988;7.856;2023-04-16T15:27:33;13.23;;;10.30;;
2712;SDS011;1366;47.988;7.856;2023-04-16T15:30:00;11.47;;;10.33;;
2712;SDS011;1366;47.988;7.856;2023-04-16T15:32:26;10.43;;;9.40;;
2712;SDS011;1366;47.988;7.856;2023-04-16T15:34:52;10.37;;;8.40;;
2712;SDS011;1366;47.988;7.856;2023-04-16T15:37:18;17.43;;;11.43;;
2712;SDS011;1366;47.988;7.856;2023-04-16T15:39:44;11.37;;;10.17;;
2712;SDS011;1366;47.988;7.856;2023-04-16T15:42:10;12.70;;;10.53;;
2712;SDS011;1366;47.988;7.856;2023-04-16T15:44:37;10.40;;;8.70;;
2712;SDS011;1366;47.988;7.856;2023-04-16T15:47:03;9.07;;;7.77;;
2712;SDS011;1366;47.988;7.856;2023-04-16T15:49:30;10.63;;;8.47;;
2712;SDS011;1366;47.988;7.856;2023-04-16T15:51:56;8.90;;;8.00;;
2712;SDS011;1366;47.988;7.856;2023-04-16T15:54:22;8.93;;;7.60;;
2712;SDS011;1366;47.988;7.856;2023-04-16T15:56:48;9.83;;;8.83;;
2712;SDS011;1366;47.988;7.856;2023-04-16T15:59:15;9.37;;;7.67;;
2712;SDS011;1366;47.988;7.856;2023-04-16T16:01:41;7.83;;;7.10;;
2712;SDS011;1366;47.988;7.856;2023-04-16T16:04:07;7.97;;;7.17;;
2712;SDS011;1366;47.988;7.856;2023-04-16T16:06:33;10.07;;;7.97;;
2712;SDS011;1366;47.988;7.856;2023-04-16T16:08:59;7.30;;;6.40;;
2712;SDS011;1366;47.988;7.856;2023-04-16T16:11:26;7.47;;;6.67;;
2712;SDS011;1366;47.988;7.856;2023-04-16T16:13:52;6.97;;;6.37;;
2712;SDS011;1366;47.988;7.856;2023-04-16T16:16:18;8.47;;;7.20;;
2712;SDS011;1366;47.988;7.856;2023-04-16T16:18:45;8.90;;;7.10;;
2712;SDS011;1366;47.988;7.856;2023-04-16T16:21:11;9.63;;;7.00;;
2712;SDS011;1366;47.988;7.856;2023-04-16T16:23:37;8.93;;;7.57;;
2712;SDS011;1366;47.988;7.856;2023-04-16T16:26:03;7.30;;;6.30;;
2712;SDS011;1366;47.988;7.856;2023-04-16T16:28:30;7.43;;;6.70;;
2712;SDS011;1366;47.988;7.856;2023-04-16T16:30:56;8.63;;;7.83;;
2712;SDS011;1366;47.988;7.856;2023-04-16T16:33:25;6.73;;;6.10;;
2712;SDS011;1366;47.988;7.856;2023-04-16T16:35:52;7.40;;;6.70;;
2712;SDS011;1366;47.988;7.856;2023-04-16T16:38:18;7.80;;;7.00;;
2712;SDS011;1366;47.988;7.856;2023-04-16T16:40:44;8.37;;;6.90;;
2712;SDS011;1366;47.988;7.856;2023-04-16T16:43:10;8.47;;;7.40;;
2712;SDS011;1366;47.988;7.856;2023-04-16T16:45:37;8.87;;;7.00;;
2712;SDS011;1366;47.988;7.856;2023-04-16T16:48:03;7.70;;;6.90;;
2712;SDS011;1366;47.988;7.856;2023-04-16T16:50:32;8.70;;;7.27;;
2712;SDS011;1366;47.988;7.856;2023-04-16T16:52:58;7.90;;;6.77;;
2712;SDS011;1366;47.988;7.856;2023-04-16T16:55:24;8.80;;;6.77;;
2712;SDS011;1366;47.988;7.856;2023-04-16T16:57:51;8.00;;;6.60;;
2712;SDS011;1366;47.988;7.856;2023-04-16T17:00:18;9.03;;;6.50;;
2712;SDS011;1366;47.988;7.856;2023-04-16T17:02:45;7.50;;;6.23;;
2712;SDS011;1366;47.988;7.856;2023-04-16T17:05:14;8.07;;;6.57;;
2712;SDS011;1366;47.988;7.856;2023-04-16T17:07:40;8.10;;;6.70;;
2712;SDS011;1366;47.988;7.856;2023-04-16T17:10:07;9.67;;;7.10;;
2712;SDS011;1366;47.988;7.856;2023-04-16T17:12:39;7.43;;;6.73;;
2712;SDS011;1366;47.988;7.856;2023-04-16T17:15:06;10.10;;;7.80;;
2712;SDS011;1366;47.988;7.856;2023-04-16T17:17:32;8.33;;;7.30;;
2712;SDS011;1366;47.988;7.856;2023-04-16T17:19:58;10.20;;;8.37;;
2712;SDS011;1366;47.988;7.856;2023-04-16T17:22:25;8.40;;;7.23;;
2712;SDS011;1366;47.988;7.856;2023-04-16T17:24:51;8.80;;;6.97;;
2712;SDS011;1366;47.988;7.856;2023-04-16T17:27:17;9.10;;;8.10;;
2712;SDS011;1366;47.988;7.856;2023-04-16T17:29:43;8.50;;;7.10;;
2712;SDS011;1366;47.988;7.856;2023-04-16T17:32:09;7.70;;;6.93;;
2712;SDS011;1366;47.988;7.856;2023-04-16T17:34:35;10.10;;;7.60;;
2712;SDS011;1366;47.988;7.856;2023-04-16T17:37:01;8.50;;;7.50;;
2712;SDS011;1366;47.988;7.856;2023-04-16T17:39:27;8.13;;;6.97;;
2712;SDS011;1366;47.988;7.856;2023-04-16T17:41:53;8.53;;;7.50;;
2712;SDS011;1366;47.988;7.856;2023-04-16T17:44:22;8.97;;;6.90;;
2712;SDS011;1366;47.988;7.856;2023-04-16T17:46:49;8.93;;;7.83;;
2712;SDS011;1366;47.988;7.856;2023-04-16T17:49:15;10.67;;;7.97;;
2712;SDS011;1366;47.988;7.856;2023-04-16T17:51:41;12.80;;;9.63;;
2712;SDS011;1366;47.988;7.856;2023-04-16T17:54:08;14.70;;;10.30;;
2712;SDS011;1366;47.988;7.856;2023-04-16T17:56:34;15.33;;;11.43;;
2712;SDS011;1366;47.988;7.856;2023-04-16T17:59:00;15.03;;;11.93;;
2712;SDS011;1366;47.988;7.856;2023-04-16T18:01:26;11.83;;;10.20;;
2712;SDS011;1366;47.988;7.856;2023-04-16T18:03:52;11.60;;;10.00;;
2712;SDS011;1366;47.988;7.856;2023-04-16T18:06:18;13.60;;;11.77;;
2712;SDS011;1366;47.988;7.856;2023-04-16T18:08:45;15.03;;;11.20;;
2712;SDS011;1366;47.988;7.856;2023-04-16T18:11:11;11.50;;;10.23;;
2712;SDS011;1366;47.988;7.856;2023-04-16T18:13:37;12.20;;;10.43;;
2712;SDS011;1366;47.988;7.856;2023-04-16T18:16:03;12.30;;;9.33;;
2712;SDS011;1366;47.988;7.856;2023-04-16T18:18:30;11.00;;;8.43;;
2712;SDS011;1366;47.988;7.856;2023-04-16T18:20:56;9.20;;;8.30;;
2712;SDS011;1366;47.988;7.856;2023-04-16T18:23:23;10.17;;;8.40;;
2712;SDS011;1366;47.988;7.856;2023-04-16T18:25:49;11.50;;;8.40;;
2712;SDS011;1366;47.988;7.856;2023-04-16T18:28:15;8.30;;;6.90;;
2712;SDS011;1366;47.988;7.856;2023-04-16T18:30:41;6.93;;;6.33;;
2712;SDS011;1366;47.988;7.856;2023-04-16T18:33:07;7.57;;;6.77;;
2712;SDS011;1366;47.988;7.856;2023-04-16T18:35:33;8.83;;;7.93;;
2712;SDS011;1366;47.988;7.856;2023-04-16T18:38:00;9.30;;;7.77;;
2712;SDS011;1366;47.988;7.856;2023-04-16T18:40:26;8.70;;;7.33;;
2712;SDS011;1366;47.988;7.856;2023-04-16T18:42:53;8.10;;;7.17;;
2712;SDS011;1366;47.988;7.856;2023-04-16T18:45:19;8.30;;;6.73;;
2712;SDS011;1366;47.988;7.856;2023-04-16T18:47:45;8.50;;;7.60;;
2712;SDS011;1366;47.988;7.856;2023-04-16T18:50:11;12.77;;;8.60;;
2712;SDS011;1366;47.988;7.856;2023-04-16T18:52:37;13.50;;;9.20;;
2712;SDS011;1366;47.988;7.856;2023-04-16T18:55:04;13.50;;;9.57;;
2712;SDS011;1366;47.988;7.856;2023-04-16T18:57:30;12.27;;;9.80;;
2712;SDS011;1366;47.988;7.856;2023-04-16T18:59:56;10.60;;;8.77;;
2712;SDS011;1366;47.988;7.856;2023-04-16T19:02:22;10.23;;;8.60;;
2712;SDS011;1366;47.988;7.856;2023-04-16T19:04:48;10.87;;;9.13;;
2712;SDS011;1366;47.988;7.856;2023-04-16T19:07:15;11.83;;;9.30;;
2712;SDS011;1366;47.988;7.856;2023-04-16T19:09:41;10.97;;;9.00;;
2712;SDS011;1366;47.988;7.856;2023-04-16T19:12:07;14.47;;;10.73;;
2712;SDS011;1366;47.988;7.856;2023-04-16T19:14:33;11.47;;;9.20;;